createdAt,value
2022-12-25T00:00:03.474Z,28.80
2022-12-25T00:02:50.146Z,30.02
2022-12-25T00:05:23.169Z,29.27
2022-12-25T00:08:10.075Z,27.50
2022-12-25T00:10:45.487Z,28.40
2022-12-25T00:13:32.065Z,27.30
2022-12-25T00:16:05.222Z,28.58
2022-12-25T00:18:53.092Z,27.00
2022-12-25T00:21:28.179Z,28.38
2022-12-25T00:24:16.075Z,29.15
2022-12-25T00:26:56.064Z,30.45
2022-12-25T00:29:43.077Z,29.13
2022-12-25T00:32:16.170Z,29.55
2022-12-25T00:35:03.185Z,29.63
2022-12-25T00:37:36.183Z,28.75
2022-12-25T00:40:23.062Z,27.10
2022-12-25T00:42:57.192Z,27.75
2022-12-25T00:45:44.117Z,27.92
2022-12-25T00:48:17.145Z,28.73
2022-12-25T00:51:06.094Z,28.17
2022-12-25T00:53:46.197Z,27.33
2022-12-25T00:56:26.090Z,28.45
2022-12-25T00:59:13.071Z,27.52
2022-12-25T01:02:27.275Z,27.40
2022-12-25T01:05:14.071Z,26.33
2022-12-25T01:07:47.241Z,26.67
2022-12-25T01:10:34.128Z,29.35
2022-12-25T01:13:08.179Z,29.27
2022-12-25T01:15:55.178Z,27.60
2022-12-25T01:18:31.207Z,28.63
2022-12-25T01:21:20.112Z,26.95
2022-12-25T01:23:54.197Z,29.60
2022-12-25T01:26:41.088Z,25.40
2022-12-25T01:29:21.089Z,26.75
2022-12-25T01:32:15.167Z,28.10
2022-12-25T01:35:09.101Z,27.95
2022-12-25T01:37:57.092Z,29.98
2022-12-25T01:40:37.120Z,27.58
2022-12-25T01:43:36.092Z,27.13
2022-12-25T01:46:09.267Z,25.67
2022-12-25T01:48:57.123Z,25.52
2022-12-25T01:51:35.232Z,26.38
2022-12-25T01:54:28.111Z,27.77
2022-12-25T01:57:06.177Z,28.75
2022-12-25T02:00:00.149Z,27.38
2022-12-25T02:02:55.190Z,27.35
2022-12-25T02:05:49.107Z,26.38
2022-12-25T02:08:43.111Z,25.48
2022-12-25T02:11:48.101Z,25.17
2022-12-25T02:14:21.215Z,26.40
2022-12-25T02:17:23.187Z,24.30
2022-12-25T02:20:36.111Z,27.38
2022-12-25T02:24:13.100Z,28.23
2022-12-25T02:27:48.131Z,26.23
2022-12-25T02:30:42.111Z,26.23
2022-12-25T02:33:48.115Z,25.55
2022-12-25T02:36:48.109Z,25.35
2022-12-25T02:40:05.118Z,25.23
2022-12-25T02:43:11.754Z,27.48
2022-12-25T02:46:31.161Z,28.13
2022-12-25T02:49:33.129Z,26.42
2022-12-25T02:52:54.150Z,26.20
2022-12-25T02:56:04.117Z,26.25
2022-12-25T02:59:07.129Z,26.23
2022-12-25T03:02:19.176Z,26.75
2022-12-25T03:05:33.124Z,27.00
2022-12-25T03:08:11.213Z,27.63
2022-12-25T03:11:29.150Z,27.88
2022-12-25T03:14:25.903Z,26.13
2022-12-25T03:17:12.149Z,26.08
2022-12-25T03:20:03.859Z,26.50
2022-12-25T03:23:15.120Z,31.85
2022-12-25T03:26:06.902Z,29.35
2022-12-25T03:28:53.143Z,26.15
2022-12-25T03:31:37.251Z,28.30
2022-12-25T03:35:15.149Z,26.77
2022-12-25T03:38:41.004Z,26.13
2022-12-25T03:42:27.155Z,24.42
2022-12-25T03:45:35.193Z,24.13
2022-12-25T03:48:48.153Z,26.85
2022-12-25T03:52:08.148Z,28.50
2022-12-25T03:55:22.088Z,29.00
2022-12-25T03:58:27.164Z,27.02
2022-12-25T04:01:32.232Z,27.70
2022-12-25T04:04:37.150Z,26.33
2022-12-25T04:07:35.151Z,24.17
2022-12-25T04:10:47.149Z,24.63
2022-12-25T04:13:52.217Z,27.05
2022-12-25T04:16:50.165Z,27.00
2022-12-25T04:20:02.156Z,24.50
2022-12-25T04:23:07.184Z,24.80
2022-12-25T04:26:05.172Z,24.60
2022-12-25T04:29:10.165Z,24.23
2022-12-25T04:32:09.158Z,26.20
2022-12-25T04:35:21.143Z,28.10
2022-12-25T04:38:08.161Z,29.13
2022-12-25T04:40:42.249Z,27.83
2022-12-25T04:43:31.170Z,26.88
2022-12-25T04:46:06.347Z,28.92
2022-12-25T04:48:53.250Z,30.90
2022-12-25T04:51:29.292Z,30.58
2022-12-25T04:54:09.179Z,30.40
2022-12-25T04:56:56.184Z,33.25
2022-12-25T04:59:50.157Z,30.65
2022-12-25T05:02:44.394Z,31.20
2022-12-25T05:05:32.170Z,30.42
2022-12-25T05:08:05.914Z,30.13
2022-12-25T05:10:52.183Z,29.05
2022-12-25T05:13:25.386Z,26.73
2022-12-25T05:16:18.273Z,28.45
2022-12-25T05:18:52.274Z,27.33
2022-12-25T05:21:39.244Z,27.67
2022-12-25T05:24:20.189Z,28.67
2022-12-25T05:27:07.173Z,27.27
2022-12-25T05:29:40.302Z,26.65
2022-12-25T05:32:27.184Z,27.33
2022-12-25T05:35:00.482Z,24.67
2022-12-25T05:37:47.191Z,25.48
2022-12-25T05:40:20.313Z,25.48
2022-12-25T05:43:07.184Z,24.98
2022-12-25T05:45:47.176Z,27.55
2022-12-25T05:48:41.205Z,25.95
2022-12-25T05:51:28.190Z,25.45
2022-12-25T05:54:01.344Z,26.17
2022-12-25T05:56:48.188Z,25.33
2022-12-25T05:59:21.301Z,25.67
2022-12-25T06:02:08.313Z,26.58
2022-12-25T06:04:41.342Z,24.40
2022-12-25T06:07:28.217Z,26.02
2022-12-25T06:10:08.204Z,24.85
2022-12-25T06:12:55.276Z,26.55
2022-12-25T06:15:28.366Z,23.83
2022-12-25T06:18:15.192Z,23.67
2022-12-25T06:20:55.202Z,24.65
2022-12-25T06:23:43.233Z,25.02
2022-12-25T06:26:20.431Z,25.63
2022-12-25T06:29:07.225Z,26.13
2022-12-25T06:31:47.221Z,24.63
2022-12-25T06:34:41.257Z,24.40
2022-12-25T06:37:28.206Z,23.45
2022-12-25T06:40:01.366Z,26.73
2022-12-25T06:42:48.212Z,23.42
2022-12-25T06:45:28.241Z,24.40
2022-12-25T06:48:15.197Z,25.20
2022-12-25T06:50:58.203Z,23.67
2022-12-25T06:53:52.232Z,25.58
2022-12-25T06:56:40.197Z,25.75
2022-12-25T06:59:23.305Z,21.73
2022-12-25T07:02:17.260Z,25.40
2022-12-25T07:05:11.198Z,26.67
2022-12-25T07:08:05.228Z,27.08
2022-12-25T07:10:52.201Z,28.38
2022-12-25T07:13:26.231Z,28.23
2022-12-25T07:16:14.246Z,28.92
2022-12-25T07:18:48.421Z,29.50
2022-12-25T07:21:35.236Z,28.05
2022-12-25T07:24:11.337Z,29.10
2022-12-25T07:27:00.235Z,31.17
2022-12-25T07:29:40.253Z,27.00
2022-12-25T07:32:34.233Z,27.52
2022-12-25T07:35:28.240Z,38.80
2022-12-25T07:38:15.237Z,43.92
2022-12-25T07:40:51.353Z,75.43
2022-12-25T07:43:38.214Z,68.55
2022-12-25T07:46:12.428Z,89.88
2022-12-25T07:48:59.230Z,120.93
2022-12-25T07:51:32.416Z,129.05
2022-12-25T07:54:19.222Z,103.20
2022-12-25T07:56:52.460Z,102.03
2022-12-25T07:59:46.248Z,111.07
2022-12-25T08:02:35.379Z,174.63
2022-12-25T08:05:08.355Z,122.32
2022-12-25T08:07:58.366Z,126.72
2022-12-25T08:10:32.346Z,111.45
2022-12-25T08:13:19.259Z,100.80
2022-12-25T08:15:52.332Z,94.90
2022-12-25T08:18:39.257Z,74.88
2022-12-25T08:21:18.390Z,93.45
2022-12-25T08:24:05.255Z,75.53
2022-12-25T08:26:38.479Z,127.72
2022-12-25T08:29:25.243Z,122.32
2022-12-25T08:32:06.247Z,81.25
2022-12-25T08:34:53.253Z,64.30
2022-12-25T08:37:26.511Z,80.55
2022-12-25T08:40:13.232Z,85.18
2022-12-25T08:42:46.385Z,96.70
2022-12-25T08:45:35.471Z,83.40
2022-12-25T08:48:08.336Z,73.28
2022-12-25T08:50:57.235Z,75.93
2022-12-25T08:53:31.384Z,83.82
2022-12-25T08:56:19.254Z,80.05
2022-12-25T08:59:01.349Z,93.28
2022-12-25T09:01:55.443Z,85.97
2022-12-25T09:04:42.272Z,93.75
2022-12-25T09:07:15.340Z,85.28
2022-12-25T09:10:02.270Z,74.90
2022-12-25T09:12:35.366Z,93.05
2022-12-25T09:15:22.249Z,77.47
2022-12-25T09:18:02.291Z,78.35
2022-12-25T09:20:56.256Z,75.63
2022-12-25T09:23:43.280Z,82.10
2022-12-25T09:26:19.397Z,88.85
2022-12-25T09:29:06.281Z,77.00
2022-12-25T09:31:39.362Z,75.85
2022-12-25T09:34:26.256Z,89.35
2022-12-25T09:36:59.375Z,96.00
2022-12-25T09:39:47.256Z,77.97
2022-12-25T09:42:28.630Z,82.20
2022-12-25T09:45:26.273Z,80.97
2022-12-25T09:48:10.286Z,72.43
2022-12-25T09:51:08.289Z,64.70
2022-12-25T09:53:57.268Z,66.13
2022-12-25T09:56:47.291Z,74.00
2022-12-25T09:59:36.309Z,59.47
2022-12-25T10:02:58.673Z,61.97
2022-12-25T10:06:04.266Z,69.22
2022-12-25T10:08:40.480Z,52.75
2022-12-25T10:11:51.285Z,45.03
2022-12-25T10:14:30.408Z,40.88
2022-12-25T10:17:47.286Z,36.13
2022-12-25T10:20:34.608Z,37.58
2022-12-25T10:23:36.296Z,46.95
2022-12-25T10:26:10.375Z,51.25
2022-12-25T10:29:22.295Z,39.55
2022-12-25T10:32:07.288Z,43.10
2022-12-25T10:34:55.349Z,40.97
2022-12-25T10:37:28.392Z,40.55
2022-12-25T10:40:32.305Z,35.92
2022-12-25T10:43:26.343Z,43.33
2022-12-25T10:46:26.321Z,37.33
2022-12-25T10:49:22.309Z,35.30
2022-12-25T10:51:56.383Z,30.55
2022-12-25T10:54:43.303Z,28.25
2022-12-25T10:57:16.471Z,35.65
2022-12-25T11:00:10.315Z,62.90
2022-12-25T11:03:04.501Z,36.08
2022-12-25T11:05:57.285Z,33.55
2022-12-25T11:08:34.708Z,52.50
2022-12-25T11:11:26.251Z,41.53
2022-12-25T11:14:03.429Z,38.63
2022-12-25T11:16:50.337Z,38.97
2022-12-25T11:19:45.310Z,39.65
2022-12-25T11:22:33.299Z,35.92
2022-12-25T11:25:20.397Z,37.78
2022-12-25T11:28:12.316Z,41.53
2022-12-25T11:30:47.444Z,39.10
2022-12-25T11:33:46.307Z,34.17
2022-12-25T11:36:35.312Z,32.35
2022-12-25T11:39:44.330Z,34.30
2022-12-25T11:42:47.309Z,36.70
2022-12-25T11:45:33.311Z,35.28
2022-12-25T11:48:33.311Z,36.65
2022-12-25T11:51:21.308Z,37.42
2022-12-25T11:53:59.416Z,37.90
2022-12-25T11:56:46.304Z,34.83
2022-12-25T11:59:37.347Z,35.58
2022-12-25T12:02:38.494Z,33.30
2022-12-25T12:05:36.352Z,34.13
2022-12-25T12:08:13.979Z,34.65
2022-12-25T12:11:22.378Z,34.58
2022-12-25T12:14:26.419Z,37.70
2022-12-25T12:17:18.305Z,36.42
2022-12-25T12:19:52.820Z,35.33
2022-12-25T12:22:39.310Z,37.67
2022-12-25T12:25:21.350Z,35.35
2022-12-25T12:28:15.335Z,38.92
2022-12-25T12:31:09.352Z,40.97
2022-12-25T12:33:50.468Z,34.40
2022-12-25T12:36:37.349Z,33.97
2022-12-25T12:39:18.348Z,37.20
2022-12-25T12:42:12.326Z,41.10
2022-12-25T12:45:02.424Z,43.30
2022-12-25T12:47:56.472Z,39.67
2022-12-25T12:50:47.349Z,36.72
2022-12-25T12:53:30.594Z,36.40
2022-12-25T12:56:35.339Z,36.95
2022-12-25T12:59:11.682Z,35.33
2022-12-25T13:02:19.635Z,31.25
2022-12-25T13:05:07.357Z,35.00
2022-12-25T13:08:04.345Z,32.88
2022-12-25T13:11:03.351Z,34.97
2022-12-25T13:13:53.392Z,32.55
2022-12-25T13:16:49.522Z,32.50
2022-12-25T13:19:36.384Z,37.03
2022-12-25T13:22:12.481Z,37.65
2022-12-25T13:25:11.418Z,32.47
2022-12-25T13:27:51.359Z,31.33
2022-12-25T13:30:38.379Z,32.50
2022-12-25T13:33:11.508Z,30.02
2022-12-25T13:35:58.359Z,29.42
2022-12-25T13:38:41.383Z,34.92
2022-12-25T13:41:57.366Z,33.03
2022-12-25T13:45:01.533Z,37.75
2022-12-25T13:47:57.390Z,39.17
2022-12-25T13:50:37.602Z,34.65
2022-12-25T13:53:25.363Z,31.08
2022-12-25T13:56:08.372Z,32.45
2022-12-25T13:58:55.403Z,33.00
2022-12-25T14:01:28.592Z,36.00
2022-12-25T14:04:21.397Z,36.65
2022-12-25T14:06:56.601Z,34.83
2022-12-25T14:09:43.381Z,37.03
2022-12-25T14:12:19.445Z,37.40
2022-12-25T14:15:07.376Z,32.20
2022-12-25T14:17:41.474Z,29.08
2022-12-25T14:20:35.365Z,26.90
2022-12-25T14:23:08.557Z,26.63
2022-12-25T14:25:55.411Z,26.25
2022-12-25T14:28:37.118Z,27.00
2022-12-25T14:31:23.435Z,28.30
2022-12-25T14:33:58.483Z,27.25
2022-12-25T14:36:45.385Z,26.75
2022-12-25T14:39:54.356Z,28.35
2022-12-25T14:42:44.491Z,26.08
2022-12-25T14:45:40.389Z,27.70
2022-12-25T14:48:33.427Z,27.80
2022-12-25T14:51:15.460Z,29.05
2022-12-25T14:54:04.448Z,36.65
2022-12-25T14:56:40.120Z,35.05
2022-12-25T14:59:38.384Z,27.20
2022-12-25T15:02:15.162Z,31.50
2022-12-25T15:05:02.386Z,28.40
2022-12-25T15:07:37.506Z,28.17
2022-12-25T15:13:27.421Z,32.20
2022-12-25T15:16:28.578Z,30.83
2022-12-25T15:19:02.626Z,33.72
2022-12-25T15:21:51.398Z,31.38
2022-12-25T15:24:25.520Z,29.67
2022-12-25T15:27:22.420Z,38.05
2022-12-25T15:30:11.317Z,37.78
2022-12-25T15:32:58.397Z,38.10
2022-12-25T15:35:33.290Z,41.10
2022-12-25T15:38:20.400Z,39.80
2022-12-25T15:40:53.549Z,37.03
2022-12-25T15:43:41.238Z,40.17
2022-12-25T15:46:22.441Z,40.70
2022-12-25T15:49:16.419Z,43.20
2022-12-25T15:52:03.405Z,47.22
2022-12-25T15:54:37.555Z,41.22
2022-12-25T15:57:29.408Z,36.42
2022-12-25T16:00:02.521Z,42.28
2022-12-25T16:02:49.531Z,38.00
2022-12-25T16:05:23.572Z,39.85
2022-12-25T16:08:10.432Z,44.45
2022-12-25T16:10:50.412Z,45.03
2022-12-25T16:13:44.459Z,42.83
2022-12-25T16:16:32.497Z,43.72
2022-12-25T16:19:06.575Z,48.63
2022-12-25T16:21:53.426Z,49.28
2022-12-25T16:24:26.553Z,50.00
2022-12-25T16:27:13.420Z,43.17
2022-12-25T16:29:53.427Z,48.40
2022-12-25T16:32:48.394Z,54.85
2022-12-25T16:35:42.468Z,50.63
2022-12-25T16:38:29.437Z,50.15
2022-12-25T16:41:13.467Z,61.58
2022-12-25T16:44:07.444Z,58.50
2022-12-25T16:46:54.477Z,48.65
2022-12-25T16:49:27.524Z,46.65
2022-12-25T16:52:14.471Z,55.05
2022-12-25T16:54:54.439Z,51.00
2022-12-25T16:57:49.468Z,49.05
2022-12-25T17:00:49.056Z,50.25
2022-12-25T17:03:44.572Z,49.85
2022-12-25T17:06:40.483Z,51.92
2022-12-25T17:09:38.830Z,59.97
2022-12-25T17:12:28.454Z,53.00
2022-12-25T17:15:08.443Z,61.22
2022-12-25T17:17:55.504Z,61.92
2022-12-25T17:20:31.588Z,81.00
2022-12-25T17:23:18.427Z,76.15
2022-12-25T17:25:58.527Z,82.95
2022-12-25T17:28:52.440Z,44.38
2022-12-25T17:31:39.525Z,71.00
2022-12-25T17:34:15.033Z,115.13
2022-12-25T17:37:01.460Z,123.53
2022-12-25T17:39:34.565Z,105.65
2022-12-25T17:42:21.468Z,121.60
2022-12-25T17:44:55.259Z,97.03
2022-12-25T17:47:43.119Z,115.03
2022-12-25T17:50:17.196Z,75.72
2022-12-25T17:53:04.896Z,66.55
2022-12-25T17:55:39.141Z,53.58
2022-12-25T17:58:25.903Z,52.58
2022-12-25T18:01:08.601Z,53.22
2022-12-25T18:04:04.621Z,57.10
2022-12-25T18:06:59.829Z,73.25
2022-12-25T18:09:47.811Z,61.92
2022-12-25T18:12:22.255Z,70.53
2022-12-25T18:15:09.486Z,86.85
2022-12-25T18:17:43.558Z,75.82
2022-12-25T18:20:35.902Z,71.38
2022-12-25T18:23:12.946Z,62.30
2022-12-25T18:25:59.560Z,68.22
2022-12-25T18:28:32.810Z,56.50
2022-12-25T18:31:25.550Z,81.85
2022-12-25T18:34:02.726Z,63.90
2022-12-25T18:36:49.498Z,72.95
2022-12-25T18:39:22.604Z,86.03
2022-12-25T18:42:28.462Z,90.78
2022-12-25T18:45:01.574Z,104.18
2022-12-25T18:47:48.457Z,78.90
2022-12-25T18:50:22.616Z,98.38
2022-12-25T18:53:10.535Z,77.60
2022-12-25T18:55:47.573Z,77.78
2022-12-25T18:58:35.486Z,71.30
2022-12-25T19:01:32.577Z,57.47
2022-12-25T19:04:26.520Z,59.25
2022-12-25T19:07:13.456Z,61.00
2022-12-25T19:09:46.581Z,60.55
2022-12-25T19:12:33.494Z,54.75
2022-12-25T19:15:06.748Z,54.03
2022-12-25T19:17:53.503Z,49.13
2022-12-25T19:20:26.616Z,54.80
2022-12-25T19:23:15.562Z,74.43
2022-12-25T19:25:49.558Z,104.07
2022-12-25T19:28:36.571Z,103.82
2022-12-25T19:31:12.979Z,85.50
2022-12-25T19:33:59.903Z,65.72
2022-12-25T19:36:33.784Z,141.60
2022-12-25T19:39:20.522Z,148.63
2022-12-25T19:42:01.523Z,162.05
2022-12-25T19:44:55.527Z,139.00
2022-12-25T19:47:42.526Z,139.32
2022-12-25T19:50:16.696Z,140.68
2022-12-25T19:53:03.483Z,132.90
2022-12-25T19:55:38.590Z,143.60
2022-12-25T19:58:26.495Z,149.43
2022-12-25T20:01:12.665Z,115.65
2022-12-25T20:03:59.541Z,98.93
2022-12-25T20:06:38.944Z,96.97
2022-12-25T20:09:21.890Z,93.15
2022-12-25T20:12:01.534Z,86.38
2022-12-25T20:14:37.728Z,87.18
2022-12-25T20:17:24.500Z,84.75
2022-12-25T20:19:57.669Z,149.80
2022-12-25T20:22:44.548Z,129.93
2022-12-25T20:25:17.645Z,114.60
2022-12-25T20:28:04.509Z,77.63
2022-12-25T20:30:37.639Z,130.35
2022-12-25T20:33:24.503Z,136.38
2022-12-25T20:36:07.520Z,133.90
2022-12-25T20:39:01.582Z,134.55
2022-12-25T20:41:48.620Z,144.07
2022-12-25T20:44:21.660Z,128.07
2022-12-25T20:47:09.565Z,113.88
2022-12-25T20:49:42.629Z,106.60
2022-12-25T20:52:29.581Z,112.60
2022-12-25T20:55:02.608Z,117.18
2022-12-25T20:57:50.519Z,143.20
2022-12-25T21:00:23.782Z,130.35
2022-12-25T21:03:10.618Z,137.68
2022-12-25T21:05:50.749Z,138.98
2022-12-25T21:08:37.625Z,148.15
2022-12-25T21:11:11.891Z,135.02
2022-12-25T21:13:58.872Z,132.07
2022-12-25T21:16:33.478Z,129.85
2022-12-25T21:19:20.587Z,131.82
2022-12-25T21:21:57.216Z,130.95
2022-12-25T21:24:43.707Z,132.57
2022-12-25T21:27:16.924Z,162.27
2022-12-25T21:30:15.387Z,209.57
2022-12-25T21:33:16.997Z,149.90
2022-12-25T21:36:22.070Z,127.78
2022-12-25T21:39:11.817Z,118.63
2022-12-25T21:41:45.754Z,115.10
2022-12-25T21:44:32.763Z,118.05
2022-12-25T21:47:12.701Z,107.85
2022-12-25T21:50:17.537Z,108.30
2022-12-25T21:52:53.688Z,98.05
2022-12-25T21:55:41.531Z,122.28
2022-12-25T21:58:17.695Z,116.72
2022-12-25T22:01:09.640Z,113.78
2022-12-25T22:04:03.621Z,109.70
2022-12-25T22:07:09.594Z,101.95
2022-12-25T22:09:50.536Z,92.43
2022-12-25T22:13:02.628Z,70.20
2022-12-25T22:16:07.636Z,60.38
2022-12-25T22:19:00.423Z,52.28
2022-12-25T22:21:47.638Z,45.08
2022-12-25T22:24:20.919Z,48.05
2022-12-25T22:27:07.544Z,43.60
2022-12-25T22:29:47.575Z,41.15
2022-12-25T22:32:42.537Z,42.92
2022-12-25T22:35:30.553Z,36.40
2022-12-25T22:38:10.542Z,31.50
2022-12-25T22:41:04.548Z,35.13
2022-12-25T22:44:16.581Z,35.60
2022-12-25T22:46:47.868Z,29.05
2022-12-25T22:49:34.646Z,27.75
2022-12-25T22:52:10.433Z,26.10
2022-12-25T22:54:57.549Z,23.88
2022-12-25T22:57:31.698Z,23.02
2022-12-25T23:00:19.536Z,24.10
2022-12-25T23:02:52.755Z,23.38
2022-12-25T23:05:39.613Z,22.52
2022-12-25T23:08:12.703Z,21.92
2022-12-25T23:11:01.653Z,21.85
2022-12-25T23:13:53.146Z,20.25
2022-12-25T23:16:39.574Z,20.33
2022-12-25T23:19:38.595Z,20.00
2022-12-25T23:22:43.601Z,21.27
2022-12-25T23:25:46.558Z,21.15
2022-12-25T23:28:58.604Z,21.38
2022-12-25T23:31:47.682Z,23.50
2022-12-25T23:34:20.662Z,22.52
2022-12-25T23:37:07.596Z,21.45
2022-12-25T23:39:40.746Z,21.63
2022-12-25T23:42:27.575Z,21.13
2022-12-25T23:45:07.608Z,21.27
2022-12-25T23:48:01.602Z,21.20
2022-12-25T23:50:55.563Z,20.77
2022-12-25T23:53:49.603Z,23.77
2022-12-25T23:56:36.640Z,23.13
2022-12-25T23:59:10.673Z,22.08
